N15VJ K1G0-KSUE
Flight info
| Callsign | N15VJ |
|---|---|
| Flight time | N/A |
| Altitude | 30000 |
| Route | MAYZE PECOK |
| Aircraft | SF50/L-BDGRSWY/LB2U2 |
Departure
| Time | 2026-04-21 21:54 |
|---|---|
| Airport | Wood County Airport (K1G0) |
Arrival
| Time | N/A |
|---|---|
| Airport | Door County Cherryland Airport (KSUE) |
| Time | Latitude | Longitude | Altitude | Speed | Heading |
|---|---|---|---|---|---|
| 2026-04-21 21:42 | 41.38684 | -83.63566 | 676 ft | 0 kts | 359° |
| 2026-04-21 21:44 | 41.38685 | -83.63566 | 676 ft | 0 kts | 180° |
| 2026-04-21 21:50 | 41.38672 | -83.63576 | 676 ft | 8 kts | 253° |
| 2026-04-21 21:50 | 41.38692 | -83.63633 | 676 ft | 8 kts | 6° |
| 2026-04-21 21:50 | 41.38738 | -83.63626 | 676 ft | 5 kts | 37° |
| 2026-04-21 21:50 | 41.38762 | -83.63587 | 676 ft | 7 kts | 52° |
| 2026-04-21 21:51 | 41.38805 | -83.63508 | 677 ft | 18 kts | 54° |
| 2026-04-21 21:51 | 41.38907 | -83.63312 | 677 ft | 29 kts | 53° |
| 2026-04-21 21:51 | 41.39018 | -83.63107 | 677 ft | 24 kts | 55° |
| 2026-04-21 21:51 | 41.39092 | -83.63017 | 677 ft | 11 kts | 89° |
| 2026-04-21 21:52 | 41.39090 | -83.62882 | 677 ft | 18 kts | 91° |
| 2026-04-21 21:52 | 41.39088 | -83.62681 | 677 ft | 25 kts | 90° |
| 2026-04-21 21:52 | 41.39085 | -83.62455 | 677 ft | 22 kts | 91° |
| 2026-04-21 21:52 | 41.39083 | -83.62267 | 677 ft | 18 kts | 91° |
| 2026-04-21 21:53 | 41.39081 | -83.62119 | 676 ft | 14 kts | 90° |
| 2026-04-21 21:53 | 41.39089 | -83.62012 | 676 ft | 9 kts | 45° |
| 2026-04-21 21:53 | 41.39144 | -83.62000 | 676 ft | 6 kts | 0° |
| 2026-04-21 21:53 | 41.39164 | -83.62029 | 677 ft | 3 kts | 269° |
| 2026-04-21 21:54 | 41.39166 | -83.62218 | 676 ft | 50 kts | 271° |
| 2026-04-21 21:54 | 41.39174 | -83.62904 | 748 ft | 95 kts | 263° |
| 2026-04-21 21:54 | 41.39172 | -83.63555 | 966 ft | 113 kts | 262° |
| 2026-04-21 21:54 | 41.39171 | -83.64666 | 1396 ft | 129 kts | 264° |
| 2026-04-21 21:55 | 41.39162 | -83.65954 | 1697 ft | 149 kts | 267° |
| 2026-04-21 21:55 | 41.39279 | -83.67336 | 2284 ft | 150 kts | 270° |
| 2026-04-21 21:55 | 41.39405 | -83.68697 | 2941 ft | 148 kts | 270° |
| 2026-04-21 21:55 | 41.39566 | -83.70064 | 3461 ft | 150 kts | 270° |
| 2026-04-21 21:56 | 41.39723 | -83.71433 | 4083 ft | 149 kts | 270° |
| 2026-04-21 21:56 | 41.39865 | -83.72796 | 4694 ft | 149 kts | 270° |
| 2026-04-21 21:56 | 41.39998 | -83.74152 | 5260 ft | 146 kts | 271° |
| 2026-04-21 21:56 | 41.40133 | -83.75481 | 5797 ft | 145 kts | 275° |
| 2026-04-21 21:57 | 41.40346 | -83.76789 | 6323 ft | 143 kts | 277° |
| 2026-04-21 21:57 | 41.40534 | -83.78077 | 6799 ft | 142 kts | 276° |
| 2026-04-21 21:57 | 41.40760 | -83.79361 | 7205 ft | 147 kts | 288° |
| 2026-04-21 21:57 | 41.41394 | -83.80477 | 7639 ft | 156 kts | 306° |
| 2026-04-21 21:58 | 41.42350 | -83.81273 | 8070 ft | 167 kts | 322° |
| 2026-04-21 21:58 | 41.43385 | -83.81975 | 8499 ft | 166 kts | 320° |
| 2026-04-21 21:58 | 41.44408 | -83.82706 | 8941 ft | 168 kts | 321° |
| 2026-04-21 21:58 | 41.45441 | -83.83437 | 9405 ft | 168 kts | 321° |
| 2026-04-21 21:59 | 41.46478 | -83.84169 | 9854 ft | 169 kts | 321° |
| 2026-04-21 21:59 | 41.47514 | -83.84905 | 10245 ft | 169 kts | 321° |
| 2026-04-21 21:59 | 41.48554 | -83.85640 | 10634 ft | 169 kts | 322° |
| 2026-04-21 21:59 | 41.49596 | -83.86375 | 11024 ft | 170 kts | 322° |
| 2026-04-21 22:00 | 41.50641 | -83.87113 | 11421 ft | 170 kts | 322° |
| 2026-04-21 22:00 | 41.51686 | -83.87851 | 11828 ft | 170 kts | 322° |
| 2026-04-21 22:00 | 41.52736 | -83.88596 | 12222 ft | 171 kts | 322° |
| 2026-04-21 22:00 | 41.53791 | -83.89343 | 12631 ft | 172 kts | 322° |
| 2026-04-21 22:01 | 41.54848 | -83.90092 | 13031 ft | 172 kts | 322° |
| 2026-04-21 22:01 | 41.55909 | -83.90842 | 13443 ft | 173 kts | 322° |
| 2026-04-21 22:01 | 41.56971 | -83.91595 | 13844 ft | 173 kts | 322° |
| 2026-04-21 22:01 | 41.58041 | -83.92350 | 14206 ft | 174 kts | 323° |
| 2026-04-21 22:02 | 41.59113 | -83.93110 | 14570 ft | 175 kts | 323° |
| 2026-04-21 22:02 | 41.60193 | -83.93874 | 14932 ft | 176 kts | 323° |
| 2026-04-21 22:02 | 41.61280 | -83.94643 | 15293 ft | 178 kts | 323° |
| 2026-04-21 22:02 | 41.62374 | -83.95421 | 15650 ft | 179 kts | 324° |
| 2026-04-21 22:03 | 41.63478 | -83.96203 | 16022 ft | 180 kts | 324° |
| 2026-04-21 22:03 | 41.64588 | -83.96990 | 16406 ft | 181 kts | 324° |
| 2026-04-21 22:03 | 41.65690 | -83.97771 | 16766 ft | 182 kts | 324° |
| 2026-04-21 22:03 | 41.66816 | -83.98570 | 17134 ft | 184 kts | 324° |
| 2026-04-21 22:04 | 41.67949 | -83.99374 | 17496 ft | 185 kts | 324° |
| 2026-04-21 22:04 | 41.69088 | -84.00187 | 17875 ft | 186 kts | 325° |
| 2026-04-21 22:04 | 41.70236 | -84.01003 | 18244 ft | 188 kts | 325° |
| 2026-04-21 22:04 | 41.71393 | -84.01828 | 18569 ft | 189 kts | 325° |
| 2026-04-21 22:05 | 41.72558 | -84.02655 | 18912 ft | 190 kts | 325° |
| 2026-04-21 22:05 | 41.73725 | -84.03489 | 19260 ft | 191 kts | 325° |
| 2026-04-21 22:05 | 41.74900 | -84.04325 | 19600 ft | 191 kts | 325° |
| 2026-04-21 22:05 | 41.76077 | -84.05167 | 19950 ft | 192 kts | 325° |
| 2026-04-21 22:06 | 41.77260 | -84.06009 | 20305 ft | 193 kts | 326° |
| 2026-04-21 22:06 | 41.78447 | -84.06858 | 20659 ft | 194 kts | 326° |
| 2026-04-21 22:06 | 41.79640 | -84.07708 | 21013 ft | 195 kts | 326° |
| 2026-04-21 22:06 | 41.80833 | -84.08560 | 21412 ft | 194 kts | 326° |
| 2026-04-21 22:07 | 41.82019 | -84.09406 | 21805 ft | 193 kts | 326° |
| 2026-04-21 22:07 | 41.83202 | -84.10250 | 22206 ft | 192 kts | 326° |
| 2026-04-21 22:07 | 41.84380 | -84.11091 | 22592 ft | 191 kts | 326° |
| 2026-04-21 22:07 | 41.85553 | -84.11930 | 22991 ft | 191 kts | 326° |
| 2026-04-21 22:08 | 41.86721 | -84.12764 | 23384 ft | 190 kts | 326° |
| 2026-04-21 22:08 | 41.87884 | -84.13596 | 23747 ft | 189 kts | 326° |
| 2026-04-21 22:08 | 41.89045 | -84.14427 | 24056 ft | 189 kts | 326° |
| 2026-04-21 22:08 | 41.90202 | -84.15255 | 24368 ft | 188 kts | 326° |
| 2026-04-21 22:09 | 41.91355 | -84.16080 | 24681 ft | 188 kts | 326° |
| 2026-04-21 22:09 | 41.92505 | -84.16903 | 24995 ft | 187 kts | 326° |
| 2026-04-21 22:09 | 41.93650 | -84.17723 | 25310 ft | 186 kts | 326° |
| 2026-04-21 22:09 | 41.94789 | -84.18541 | 25607 ft | 186 kts | 326° |
| 2026-04-21 22:10 | 41.95927 | -84.19358 | 25925 ft | 185 kts | 325° |
| 2026-04-21 22:10 | 41.97056 | -84.20171 | 26234 ft | 184 kts | 326° |
| 2026-04-21 22:10 | 41.98183 | -84.20978 | 26534 ft | 183 kts | 325° |
| 2026-04-21 22:10 | 41.99304 | -84.21786 | 26841 ft | 183 kts | 325° |
| 2026-04-21 22:11 | 42.00422 | -84.22589 | 27150 ft | 182 kts | 325° |
| 2026-04-21 22:11 | 42.01535 | -84.23392 | 27447 ft | 181 kts | 325° |
| 2026-04-21 22:11 | 42.02642 | -84.24189 | 27751 ft | 180 kts | 325° |
| 2026-04-21 22:11 | 42.03745 | -84.24983 | 28050 ft | 179 kts | 325° |
| 2026-04-21 22:12 | 42.04843 | -84.25775 | 28352 ft | 179 kts | 325° |
| 2026-04-21 22:12 | 42.05935 | -84.26561 | 28658 ft | 177 kts | 325° |
| 2026-04-21 22:12 | 42.07021 | -84.27344 | 28938 ft | 177 kts | 325° |
| 2026-04-21 22:12 | 42.08105 | -84.28125 | 29243 ft | 176 kts | 325° |
| 2026-04-21 22:13 | 42.09182 | -84.28904 | 29540 ft | 176 kts | 325° |
| 2026-04-21 22:13 | 42.10256 | -84.29678 | 29829 ft | 175 kts | 326° |
| 2026-04-21 22:13 | 42.11334 | -84.30459 | 29967 ft | 180 kts | 325° |
| 2026-04-21 22:13 | 42.12472 | -84.31284 | 29986 ft | 191 kts | 326° |
| 2026-04-21 22:14 | 42.13673 | -84.32148 | 29983 ft | 200 kts | 326° |
| 2026-04-21 22:14 | 42.14929 | -84.33055 | 29979 ft | 209 kts | 326° |
| 2026-04-21 22:14 | 42.16232 | -84.33994 | 29986 ft | 216 kts | 327° |
| 2026-04-21 22:14 | 42.17576 | -84.34965 | 29976 ft | 222 kts | 327° |
| 2026-04-21 22:15 | 42.18954 | -84.35962 | 29984 ft | 227 kts | 327° |
| 2026-04-21 22:15 | 42.20362 | -84.36981 | 29981 ft | 232 kts | 327° |
| 2026-04-21 22:15 | 42.21794 | -84.38016 | 29980 ft | 235 kts | 327° |
| 2026-04-21 22:15 | 42.23246 | -84.39070 | 29981 ft | 239 kts | 327° |
| 2026-04-21 22:16 | 42.24717 | -84.40135 | 29986 ft | 241 kts | 327° |
| 2026-04-21 22:16 | 42.26207 | -84.41215 | 29981 ft | 244 kts | 327° |
| 2026-04-21 22:16 | 42.27710 | -84.42307 | 29987 ft | 247 kts | 327° |
| 2026-04-21 22:16 | 42.29231 | -84.43410 | 29982 ft | 249 kts | 327° |
| 2026-04-21 22:17 | 42.30764 | -84.44523 | 29991 ft | 252 kts | 327° |